createdAt,value
2023-03-18T11:02:26.302Z,1.90
2023-03-18T11:03:26.059Z,1.70
2023-03-18T19:09:57.518Z,3.60
2023-03-18T19:10:57.435Z,3.00
2023-03-18T19:11:57.378Z,3.10
2023-03-18T19:12:57.306Z,3.20
2023-03-18T19:13:57.252Z,3.10
2023-03-18T19:14:57.177Z,3.60
2023-03-18T19:15:57.155Z,2.90
2023-03-18T19:16:57.056Z,3.60
2023-03-18T19:17:56.990Z,4.20
2023-03-18T19:18:56.918Z,3.60
2023-03-18T19:19:56.861Z,3.90
2023-03-18T19:20:56.797Z,3.50
2023-03-18T19:21:56.746Z,3.60
2023-03-18T19:22:56.671Z,3.70
2023-03-18T19:23:56.623Z,3.90
2023-03-18T19:24:56.543Z,3.50
2023-03-18T19:25:56.508Z,3.60
2023-03-18T19:26:56.418Z,3.30
2023-03-18T19:27:56.346Z,4.50
2023-03-18T19:28:58.857Z,4.60
2023-03-18T19:29:56.234Z,4.20
2023-03-18T19:30:56.152Z,4.40
2023-03-18T19:31:56.170Z,3.20
2023-03-18T19:32:56.071Z,3.90
2023-03-18T19:33:55.965Z,3.80
2023-03-18T19:34:55.911Z,3.90
2023-03-18T19:35:55.904Z,3.80
2023-03-18T19:36:55.769Z,3.90
2023-03-18T19:37:55.706Z,3.40
2023-03-18T19:38:55.644Z,4.30
2023-03-18T19:39:55.587Z,4.40
2023-03-18T19:40:55.516Z,3.90
2023-03-18T19:41:55.451Z,3.70
2023-03-18T19:42:55.387Z,3.90
2023-03-18T19:43:55.320Z,3.50
2023-03-18T19:44:55.261Z,3.20
2023-03-18T19:45:55.230Z,3.50
2023-03-18T19:46:55.135Z,3.80
2023-03-18T19:47:55.066Z,3.60
2023-03-18T19:48:55.000Z,3.70
2023-03-18T19:49:54.953Z,3.50
2023-03-18T19:50:56.812Z,3.30
2023-03-18T19:51:54.818Z,3.10
2023-03-18T19:52:54.757Z,3.30
2023-03-18T19:53:54.684Z,3.30
2023-03-18T19:54:54.654Z,3.50
2023-03-18T19:55:54.794Z,3.50
2023-03-18T19:56:54.485Z,3.30
2023-03-18T19:57:54.424Z,3.10
2023-03-18T19:58:54.414Z,3.60
2023-03-18T19:59:54.293Z,3.00
2023-03-18T20:00:54.297Z,3.20
2023-03-18T20:01:54.181Z,3.40
2023-03-18T20:02:54.129Z,3.10
2023-03-18T20:03:54.071Z,2.80
2023-03-18T20:04:53.971Z,3.60
2023-03-18T20:05:53.910Z,3.70
2023-03-18T20:06:53.847Z,3.10
2023-03-18T20:07:53.779Z,3.20
2023-03-18T20:08:53.719Z,2.90
2023-03-18T20:09:53.670Z,3.60
2023-03-18T20:10:53.582Z,3.50
2023-03-18T20:11:53.519Z,3.40
2023-03-18T20:12:53.458Z,3.70
2023-03-18T20:13:53.395Z,3.60
2023-03-18T20:14:53.372Z,3.00
2023-03-18T20:15:53.263Z,3.70
2023-03-18T20:16:53.235Z,3.90
2023-03-18T20:17:53.141Z,3.30
2023-03-18T20:18:53.072Z,3.50
2023-03-18T20:19:53.024Z,3.60
2023-03-18T20:20:52.945Z,3.90
2023-03-18T20:21:52.881Z,3.00
2023-03-18T20:22:52.830Z,3.80
2023-03-18T20:23:52.746Z,4.00
2023-03-18T20:24:52.686Z,3.30
2023-03-18T20:25:52.620Z,3.60
2023-03-18T20:26:52.559Z,3.70
2023-03-18T20:27:52.496Z,4.10
2023-03-18T20:28:52.429Z,4.20
2023-03-18T20:29:52.372Z,4.20
2023-03-18T20:30:52.299Z,4.70
2023-03-18T20:31:52.287Z,3.80
2023-03-18T20:32:52.223Z,3.80
2023-03-18T20:33:52.116Z,4.50
2023-03-18T20:34:52.052Z,3.90
2023-03-18T20:35:52.021Z,4.60
2023-03-18T20:36:51.918Z,4.30
2023-03-18T20:37:51.853Z,5.30
2023-03-18T20:38:51.784Z,4.50
2023-03-18T20:39:51.727Z,4.70
2023-03-18T20:40:51.657Z,4.90
2023-03-18T20:41:51.593Z,4.50
2023-03-18T20:42:51.543Z,4.60
2023-03-18T20:43:51.471Z,4.70
2023-03-18T20:44:51.410Z,4.40
2023-03-18T20:45:51.413Z,4.50
2023-03-18T20:46:51.270Z,4.50
2023-03-18T20:47:51.225Z,4.60
2023-03-18T20:48:51.143Z,4.80
2023-03-18T20:49:51.076Z,4.90
2023-03-18T20:50:51.020Z,4.80
2023-03-18T20:51:50.944Z,4.80
2023-03-18T20:52:50.888Z,5.20
2023-03-18T20:53:50.830Z,4.60
2023-03-18T20:54:50.757Z,5.00
2023-03-18T20:55:50.698Z,4.80
2023-03-18T20:56:50.632Z,5.10
2023-03-18T20:57:50.556Z,4.80
2023-03-18T20:58:50.493Z,5.40
2023-03-18T20:59:50.427Z,5.90
2023-03-18T21:00:50.395Z,4.70
2023-03-18T21:01:50.298Z,5.00
2023-03-18T21:02:50.246Z,5.50
2023-03-18T21:03:50.181Z,5.50
2023-03-18T21:04:50.102Z,5.00
2023-03-18T21:05:50.043Z,5.40
2023-03-18T21:06:49.975Z,5.70
2023-03-18T21:07:49.908Z,5.30
2023-03-18T21:08:49.843Z,5.90
2023-03-18T21:09:49.783Z,5.70
2023-03-18T21:10:49.714Z,5.80
2023-03-18T21:11:49.650Z,6.00
2023-03-18T21:12:49.624Z,5.50
2023-03-18T21:13:49.524Z,5.80
2023-03-18T21:14:49.452Z,6.30
2023-03-18T21:15:49.390Z,5.70
2023-03-18T21:16:49.336Z,5.80
2023-03-18T21:17:49.260Z,6.20
2023-03-18T21:18:49.188Z,6.00
2023-03-18T21:19:49.138Z,5.60
2023-03-18T21:20:49.065Z,6.50
2023-03-18T21:21:48.997Z,6.50
2023-03-18T21:22:48.927Z,6.50
2023-03-18T21:23:48.865Z,5.80
2023-03-18T21:24:48.795Z,6.60
2023-03-18T21:25:48.757Z,5.50
2023-03-18T21:27:01.618Z,5.70
2023-03-18T21:27:48.600Z,5.10
2023-03-18T21:28:48.540Z,6.20
2023-03-18T21:29:48.477Z,6.20
2023-03-18T21:30:48.465Z,5.70
2023-03-18T21:31:48.344Z,5.50
2023-03-18T21:32:48.288Z,5.20
2023-03-18T21:33:48.212Z,5.30
2023-03-18T21:34:48.146Z,7.10
2023-03-18T21:35:48.103Z,5.10
2023-03-18T21:36:48.017Z,5.40
2023-03-18T21:37:47.963Z,5.70
2023-03-18T21:38:47.892Z,5.70
2023-03-18T21:39:47.829Z,5.20
2023-03-18T21:40:47.748Z,4.90
2023-03-18T21:41:47.688Z,5.40
2023-03-18T21:42:47.620Z,6.20
2023-03-18T21:43:47.565Z,5.70
2023-03-18T21:44:47.491Z,5.40
2023-03-18T21:45:47.426Z,5.90
2023-03-18T21:46:47.357Z,5.60
2023-03-18T21:47:47.300Z,5.10
2023-03-18T21:48:47.224Z,5.60
2023-03-18T21:49:47.165Z,5.80
2023-03-18T21:50:54.755Z,5.10
2023-03-18T21:52:51.493Z,5.40
2023-03-18T21:53:51.357Z,5.90
2023-03-18T21:54:51.291Z,4.80
2023-03-18T21:55:51.232Z,5.50
2023-03-18T21:56:51.171Z,4.70
2023-03-18T21:57:51.098Z,4.30
2023-03-18T21:58:51.023Z,4.50
2023-03-18T21:59:50.984Z,5.50
2023-03-18T22:00:50.900Z,5.70
2023-03-18T22:01:50.851Z,6.10
2023-03-18T22:02:50.783Z,4.20
2023-03-18T22:03:50.725Z,5.60
2023-03-18T22:04:50.647Z,5.60
2023-03-18T22:05:50.575Z,5.00
2023-03-18T22:06:50.505Z,5.90
2023-03-18T22:07:50.576Z,5.50
2023-03-18T22:08:50.398Z,5.90
2023-03-18T22:09:50.338Z,5.50
2023-03-18T22:10:50.269Z,5.80
2023-03-18T22:11:50.187Z,5.10
2023-03-18T22:12:50.122Z,5.00
2023-03-18T22:13:50.049Z,4.90
2023-03-18T22:14:49.989Z,5.40
2023-03-18T22:15:49.964Z,5.60
2023-03-18T22:16:49.862Z,5.00
2023-03-18T22:17:49.789Z,5.20
2023-03-18T22:18:49.723Z,5.20
2023-03-18T22:19:49.659Z,6.30
2023-03-18T22:20:49.591Z,5.80
2023-03-18T22:21:49.528Z,6.30
2023-03-18T22:22:49.456Z,5.50
2023-03-18T22:23:49.403Z,5.90
2023-03-18T22:24:49.339Z,6.10
2023-03-18T22:25:49.265Z,5.50
2023-03-18T22:26:49.196Z,6.60
2023-03-18T22:27:49.133Z,5.60
2023-03-18T22:28:49.081Z,5.60
2023-03-18T22:29:49.003Z,5.60
2023-03-18T22:30:48.965Z,6.50
2023-03-18T22:31:48.930Z,6.00
2023-03-18T22:32:48.851Z,6.10
2023-03-18T22:33:48.753Z,5.30
2023-03-18T22:34:48.682Z,4.90
2023-03-18T22:35:48.671Z,5.20
2023-03-18T22:36:48.539Z,5.50
2023-03-18T22:37:48.479Z,5.50
2023-03-18T22:38:48.424Z,5.80
2023-03-18T22:39:48.343Z,5.20
2023-03-18T22:40:48.277Z,5.80
2023-03-18T22:41:48.212Z,5.30
2023-03-18T22:42:48.146Z,5.80
2023-03-18T22:43:48.078Z,5.90
2023-03-18T22:44:48.072Z,5.80
2023-03-18T22:45:47.948Z,6.60
2023-03-18T22:46:47.966Z,5.80
2023-03-18T22:47:47.822Z,6.30
2023-03-18T22:48:47.750Z,5.50
2023-03-18T22:49:47.697Z,6.00
2023-03-18T22:50:47.618Z,6.40
2023-03-18T22:51:47.558Z,6.20
2023-03-18T22:52:47.490Z,5.70
2023-03-18T22:53:47.420Z,5.70
2023-03-18T22:54:47.355Z,6.30
2023-03-18T22:55:47.296Z,6.20
2023-03-18T22:56:47.244Z,6.60
2023-03-18T22:57:47.156Z,6.30
2023-03-18T22:58:47.098Z,6.40
2023-03-18T22:59:47.036Z,5.80
2023-03-18T23:00:46.983Z,6.40
2023-03-18T23:01:46.971Z,6.30
2023-03-18T23:02:46.852Z,6.50
2023-03-18T23:03:46.786Z,5.50
2023-03-18T23:04:46.701Z,5.80
2023-03-18T23:05:46.640Z,6.40
2023-03-18T23:06:46.638Z,6.40
2023-03-18T23:07:46.504Z,6.50
2023-03-18T23:08:46.475Z,6.20
2023-03-18T23:09:56.167Z,6.00
2023-03-18T23:10:46.307Z,6.40
2023-03-18T23:11:46.237Z,5.80
2023-03-18T23:12:46.175Z,6.50
2023-03-18T23:13:46.114Z,6.60
2023-03-18T23:14:46.038Z,6.20
2023-03-18T23:15:45.979Z,6.30
2023-03-18T23:16:45.914Z,6.20
2023-03-18T23:17:45.872Z,6.00
2023-03-18T23:18:45.777Z,6.20
2023-03-18T23:19:45.713Z,5.90
2023-03-18T23:20:45.644Z,6.40
2023-03-18T23:21:45.578Z,5.90
2023-03-18T23:22:45.508Z,6.10
2023-03-18T23:23:45.452Z,6.80
2023-03-18T23:24:45.377Z,5.60
2023-03-18T23:25:45.350Z,7.00
2023-03-18T23:26:45.251Z,5.40
2023-03-18T23:27:45.185Z,5.60
2023-03-18T23:28:45.634Z,7.00
2023-03-18T23:29:45.054Z,6.60
2023-03-18T23:30:44.984Z,5.90
2023-03-18T23:31:44.933Z,5.50
2023-03-18T23:32:44.888Z,6.80
2023-03-18T23:33:44.837Z,6.20
2023-03-18T23:34:44.722Z,5.80
2023-03-18T23:35:44.694Z,6.30
2023-03-18T23:36:44.592Z,5.90
2023-03-18T23:37:44.528Z,5.70
2023-03-18T23:38:44.453Z,6.40
2023-03-18T23:39:44.395Z,6.70
2023-03-18T23:40:44.322Z,5.60
2023-03-18T23:41:44.269Z,6.20
2023-03-18T23:42:44.196Z,6.80
2023-03-18T23:43:44.136Z,6.50
2023-03-18T23:44:44.062Z,6.20
2023-03-18T23:45:44.113Z,5.80
2023-03-18T23:46:43.936Z,5.60
2023-03-18T23:47:43.865Z,5.10
2023-03-18T23:48:43.801Z,5.70
2023-03-18T23:49:43.735Z,5.80
2023-03-18T23:50:43.679Z,5.50
2023-03-18T23:51:43.606Z,6.20
2023-03-18T23:52:43.541Z,5.50
2023-03-18T23:53:43.476Z,5.80
2023-03-18T23:54:43.421Z,6.40
2023-03-18T23:55:43.346Z,5.90
2023-03-18T23:56:43.276Z,5.40
2023-03-18T23:57:43.212Z,5.80
2023-03-18T23:58:43.144Z,5.60
2023-03-18T23:59:43.080Z,5.10
